sensor_id;sensor_type;location;lat;lon;timestamp;P1;durP1;ratioP1;P2;durP2;ratioP2
5117;SDS011;2578;51.622;7.046;2022-09-28T00:02:03;12.80;;;11.50;;
5117;SDS011;2578;51.622;7.046;2022-09-28T00:04:29;13.33;;;11.93;;
5117;SDS011;2578;51.622;7.046;2022-09-28T00:06:57;14.03;;;12.53;;
5117;SDS011;2578;51.622;7.046;2022-09-28T00:09:22;12.50;;;11.20;;
5117;SDS011;2578;51.622;7.046;2022-09-28T00:11:48;13.00;;;11.70;;
5117;SDS011;2578;51.622;7.046;2022-09-28T00:14:14;13.20;;;11.90;;
5117;SDS011;2578;51.622;7.046;2022-09-28T00:16:40;13.20;;;11.80;;
5117;SDS011;2578;51.622;7.046;2022-09-28T00:19:08;13.20;;;11.90;;
5117;SDS011;2578;51.622;7.046;2022-09-28T00:21:36;13.00;;;11.53;;
5117;SDS011;2578;51.622;7.046;2022-09-28T00:24:03;13.37;;;12.07;;
5117;SDS011;2578;51.622;7.046;2022-09-28T00:29:32;13.40;;;12.00;;
5117;SDS011;2578;51.622;7.046;2022-09-28T00:31:58;13.43;;;12.03;;
5117;SDS011;2578;51.622;7.046;2022-09-28T00:34:29;12.50;;;11.20;;
5117;SDS011;2578;51.622;7.046;2022-09-28T00:36:57;13.47;;;12.10;;
5117;SDS011;2578;51.622;7.046;2022-09-28T00:39:25;13.67;;;12.27;;
5117;SDS011;2578;51.622;7.046;2022-09-28T00:41:51;12.40;;;11.10;;
5117;SDS011;2578;51.622;7.046;2022-09-28T00:47:14;12.00;;;10.70;;
5117;SDS011;2578;51.622;7.046;2022-09-28T00:49:48;13.07;;;11.67;;
5117;SDS011;2578;51.622;7.046;2022-09-28T00:52:28;11.87;;;10.53;;
5117;SDS011;2578;51.622;7.046;2022-09-28T00:54:59;12.30;;;10.97;;
5117;SDS011;2578;51.622;7.046;2022-09-28T00:57:27;12.70;;;10.97;;
5117;SDS011;2578;51.622;7.046;2022-09-28T00:59:54;11.83;;;10.40;;
5117;SDS011;2578;51.622;7.046;2022-09-28T01:02:20;13.10;;;11.30;;
5117;SDS011;2578;51.622;7.046;2022-09-28T01:04:46;14.40;;;11.27;;
5117;SDS011;2578;51.622;7.046;2022-09-28T01:07:13;11.60;;;10.40;;
5117;SDS011;2578;51.622;7.046;2022-09-28T01:09:42;12.00;;;10.70;;
5117;SDS011;2578;51.622;7.046;2022-09-28T01:12:10;12.13;;;10.83;;
5117;SDS011;2578;51.622;7.046;2022-09-28T01:14:35;11.77;;;10.43;;
5117;SDS011;2578;51.622;7.046;2022-09-28T01:17:12;13.27;;;11.50;;
5117;SDS011;2578;51.622;7.046;2022-09-28T01:19:46;17.87;;;12.40;;
5117;SDS011;2578;51.622;7.046;2022-09-28T01:25:10;13.50;;;12.10;;
5117;SDS011;2578;51.622;7.046;2022-09-28T01:27:41;14.53;;;12.40;;
5117;SDS011;2578;51.622;7.046;2022-09-28T01:30:20;14.70;;;12.87;;
5117;SDS011;2578;51.622;7.046;2022-09-28T01:33:21;16.20;;;14.50;;
5117;SDS011;2578;51.622;7.046;2022-09-28T01:35:49;13.07;;;11.70;;
5117;SDS011;2578;51.622;7.046;2022-09-28T01:38:27;13.70;;;12.30;;
5117;SDS011;2578;51.622;7.046;2022-09-28T01:41:01;13.90;;;12.50;;
5117;SDS011;2578;51.622;7.046;2022-09-28T01:43:29;14.67;;;13.20;;
5117;SDS011;2578;51.622;7.046;2022-09-28T01:45:59;13.67;;;12.27;;
5117;SDS011;2578;51.622;7.046;2022-09-28T01:48:41;13.47;;;12.07;;
5117;SDS011;2578;51.622;7.046;2022-09-28T01:51:28;14.57;;;13.07;;
5117;SDS011;2578;51.622;7.046;2022-09-28T01:53:55;13.60;;;12.20;;
5117;SDS011;2578;51.622;7.046;2022-09-28T01:56:31;15.33;;;12.73;;
5117;SDS011;2578;51.622;7.046;2022-09-28T01:59:07;13.50;;;12.10;;
5117;SDS011;2578;51.622;7.046;2022-09-28T02:01:38;13.70;;;12.30;;
5117;SDS011;2578;51.622;7.046;2022-09-28T02:04:15;13.17;;;11.80;;
5117;SDS011;2578;51.622;7.046;2022-09-28T02:06:46;14.27;;;12.77;;
5117;SDS011;2578;51.622;7.046;2022-09-28T02:12:34;12.40;;;11.03;;
5117;SDS011;2578;51.622;7.046;2022-09-28T02:15:18;14.20;;;12.27;;
5117;SDS011;2578;51.622;7.046;2022-09-28T02:17:48;14.63;;;12.43;;
5117;SDS011;2578;51.622;7.046;2022-09-28T02:20:14;13.50;;;11.43;;
5117;SDS011;2578;51.622;7.046;2022-09-28T02:22:48;16.70;;;12.97;;
5117;SDS011;2578;51.622;7.046;2022-09-28T02:27:51;15.90;;;11.83;;
5117;SDS011;2578;51.622;7.046;2022-09-28T02:30:26;17.73;;;11.77;;
5117;SDS011;2578;51.622;7.046;2022-09-28T02:32:54;16.83;;;13.07;;
5117;SDS011;2578;51.622;7.046;2022-09-28T02:35:25;16.10;;;14.40;;
5117;SDS011;2578;51.622;7.046;2022-09-28T02:37:50;12.17;;;10.50;;
5117;SDS011;2578;51.622;7.046;2022-09-28T02:40:22;14.03;;;11.73;;
5117;SDS011;2578;51.622;7.046;2022-09-28T02:43:01;15.67;;;11.03;;
5117;SDS011;2578;51.622;7.046;2022-09-28T02:48:23;12.80;;;10.63;;
5117;SDS011;2578;51.622;7.046;2022-09-28T02:56:39;11.80;;;9.50;;
5117;SDS011;2578;51.622;7.046;2022-09-28T02:59:22;18.77;;;12.20;;
5117;SDS011;2578;51.622;7.046;2022-09-28T03:04:48;13.57;;;10.87;;
5117;SDS011;2578;51.622;7.046;2022-09-28T03:12:49;11.97;;;9.80;;
5117;SDS011;2578;51.622;7.046;2022-09-28T03:15:21;12.13;;;9.87;;
5117;SDS011;2578;51.622;7.046;2022-09-28T03:17:52;11.67;;;9.50;;
5117;SDS011;2578;51.622;7.046;2022-09-28T03:20:18;11.97;;;9.70;;
5117;SDS011;2578;51.622;7.046;2022-09-28T03:22:44;13.93;;;10.77;;
5117;SDS011;2578;51.622;7.046;2022-09-28T03:25:10;12.13;;;10.30;;
5117;SDS011;2578;51.622;7.046;2022-09-28T03:27:36;12.27;;;10.33;;
5117;SDS011;2578;51.622;7.046;2022-09-28T03:30:02;13.37;;;11.47;;
5117;SDS011;2578;51.622;7.046;2022-09-28T03:32:28;12.07;;;10.60;;
5117;SDS011;2578;51.622;7.046;2022-09-28T03:34:54;12.17;;;10.60;;
5117;SDS011;2578;51.622;7.046;2022-09-28T03:37:19;12.53;;;11.10;;
5117;SDS011;2578;51.622;7.046;2022-09-28T03:39:45;12.67;;;10.80;;
5117;SDS011;2578;51.622;7.046;2022-09-28T03:42:11;15.97;;;12.50;;
5117;SDS011;2578;51.622;7.046;2022-09-28T03:44:36;12.10;;;10.30;;
5117;SDS011;2578;51.622;7.046;2022-09-28T03:47:02;12.13;;;10.53;;
5117;SDS011;2578;51.622;7.046;2022-09-28T03:49:28;12.97;;;11.50;;
5117;SDS011;2578;51.622;7.046;2022-09-28T03:51:53;12.17;;;10.87;;
5117;SDS011;2578;51.622;7.046;2022-09-28T03:54:19;12.50;;;11.20;;
5117;SDS011;2578;51.622;7.046;2022-09-28T03:56:44;12.40;;;11.10;;
5117;SDS011;2578;51.622;7.046;2022-09-28T03:59:10;12.13;;;10.80;;
5117;SDS011;2578;51.622;7.046;2022-09-28T04:01:36;12.10;;;10.27;;
5117;SDS011;2578;51.622;7.046;2022-09-28T04:04:01;11.97;;;10.10;;
5117;SDS011;2578;51.622;7.046;2022-09-28T04:06:27;12.57;;;11.00;;
5117;SDS011;2578;51.622;7.046;2022-09-28T04:08:52;12.60;;;10.30;;
5117;SDS011;2578;51.622;7.046;2022-09-28T04:11:18;14.97;;;12.27;;
5117;SDS011;2578;51.622;7.046;2022-09-28T04:13:46;15.10;;;11.20;;
5117;SDS011;2578;51.622;7.046;2022-09-28T04:16:14;12.70;;;10.43;;
5117;SDS011;2578;51.622;7.046;2022-09-28T04:18:40;15.23;;;11.67;;
5117;SDS011;2578;51.622;7.046;2022-09-28T04:21:07;13.23;;;11.80;;
5117;SDS011;2578;51.622;7.046;2022-09-28T04:23:36;13.00;;;10.97;;
5117;SDS011;2578;51.622;7.046;2022-09-28T04:26:04;11.97;;;9.80;;
5117;SDS011;2578;51.622;7.046;2022-09-28T04:28:31;11.80;;;9.90;;
5117;SDS011;2578;51.622;7.046;2022-09-28T04:31:17;11.83;;;9.93;;
5117;SDS011;2578;51.622;7.046;2022-09-28T04:33:44;11.83;;;10.00;;
5117;SDS011;2578;51.622;7.046;2022-09-28T04:36:10;13.23;;;10.73;;
5117;SDS011;2578;51.622;7.046;2022-09-28T04:38:37;11.83;;;9.97;;
5117;SDS011;2578;51.622;7.046;2022-09-28T04:41:03;14.67;;;10.50;;
5117;SDS011;2578;51.622;7.046;2022-09-28T04:43:30;12.00;;;10.13;;
5117;SDS011;2578;51.622;7.046;2022-09-28T04:45:59;12.10;;;10.23;;
5117;SDS011;2578;51.622;7.046;2022-09-28T04:48:25;11.93;;;9.90;;
5117;SDS011;2578;51.622;7.046;2022-09-28T04:50:55;12.10;;;10.70;;
5117;SDS011;2578;51.622;7.046;2022-09-28T04:53:21;13.80;;;11.83;;
5117;SDS011;2578;51.622;7.046;2022-09-28T04:56:21;14.40;;;12.80;;
5117;SDS011;2578;51.622;7.046;2022-09-28T04:58:40;12.17;;;10.60;;
5117;SDS011;2578;51.622;7.046;2022-09-28T05:01:07;14.60;;;12.50;;
5117;SDS011;2578;51.622;7.046;2022-09-28T05:03:38;19.03;;;14.73;;
5117;SDS011;2578;51.622;7.046;2022-09-28T05:06:04;18.10;;;11.60;;
5117;SDS011;2578;51.622;7.046;2022-09-28T05:08:32;15.60;;;11.23;;
5117;SDS011;2578;51.622;7.046;2022-09-28T05:11:03;12.03;;;9.77;;
5117;SDS011;2578;51.622;7.046;2022-09-28T05:13:30;15.60;;;10.90;;
5117;SDS011;2578;51.622;7.046;2022-09-28T05:15:57;16.00;;;11.90;;
5117;SDS011;2578;51.622;7.046;2022-09-28T05:18:23;13.37;;;10.47;;
5117;SDS011;2578;51.622;7.046;2022-09-28T05:20:49;14.83;;;10.53;;
5117;SDS011;2578;51.622;7.046;2022-09-28T05:23:15;12.03;;;10.37;;
5117;SDS011;2578;51.622;7.046;2022-09-28T05:25:41;13.53;;;9.90;;
5117;SDS011;2578;51.622;7.046;2022-09-28T05:28:07;12.80;;;10.33;;
5117;SDS011;2578;51.622;7.046;2022-09-28T05:30:33;11.63;;;9.50;;
5117;SDS011;2578;51.622;7.046;2022-09-28T05:32:59;13.20;;;8.90;;
5117;SDS011;2578;51.622;7.046;2022-09-28T05:35:25;11.30;;;8.40;;
5117;SDS011;2578;51.622;7.046;2022-09-28T05:37:51;11.63;;;9.20;;
5117;SDS011;2578;51.622;7.046;2022-09-28T05:40:18;11.63;;;9.40;;
5117;SDS011;2578;51.622;7.046;2022-09-28T05:42:44;12.10;;;10.33;;
5117;SDS011;2578;51.622;7.046;2022-09-28T05:45:10;11.57;;;8.97;;
5117;SDS011;2578;51.622;7.046;2022-09-28T05:47:36;11.77;;;9.43;;
5117;SDS011;2578;51.622;7.046;2022-09-28T05:50:06;12.07;;;10.17;;
5117;SDS011;2578;51.622;7.046;2022-09-28T05:52:35;11.87;;;9.60;;
5117;SDS011;2578;51.622;7.046;2022-09-28T05:55:04;11.80;;;9.47;;
5117;SDS011;2578;51.622;7.046;2022-09-28T05:57:31;11.97;;;9.90;;
5117;SDS011;2578;51.622;7.046;2022-09-28T05:59:56;13.03;;;10.70;;
5117;SDS011;2578;51.622;7.046;2022-09-28T06:02:22;12.53;;;9.73;;
5117;SDS011;2578;51.622;7.046;2022-09-28T06:04:48;15.70;;;10.97;;
5117;SDS011;2578;51.622;7.046;2022-09-28T06:07:15;11.93;;;9.60;;
5117;SDS011;2578;51.622;7.046;2022-09-28T06:09:44;12.07;;;10.20;;
5117;SDS011;2578;51.622;7.046;2022-09-28T06:12:10;13.83;;;11.47;;
5117;SDS011;2578;51.622;7.046;2022-09-28T06:14:36;14.80;;;11.33;;
5117;SDS011;2578;51.622;7.046;2022-09-28T06:17:03;13.10;;;11.20;;
5117;SDS011;2578;51.622;7.046;2022-09-28T06:19:29;13.80;;;11.70;;
5117;SDS011;2578;51.622;7.046;2022-09-28T06:21:54;12.53;;;11.07;;
5117;SDS011;2578;51.622;7.046;2022-09-28T06:24:20;12.53;;;11.23;;
5117;SDS011;2578;51.622;7.046;2022-09-28T06:26:46;12.07;;;10.60;;
5117;SDS011;2578;51.622;7.046;2022-09-28T06:29:11;13.00;;;10.20;;
5117;SDS011;2578;51.622;7.046;2022-09-28T06:31:43;11.90;;;9.63;;
5117;SDS011;2578;51.622;7.046;2022-09-28T06:34:09;15.20;;;12.20;;
5117;SDS011;2578;51.622;7.046;2022-09-28T06:36:36;13.70;;;11.00;;
5117;SDS011;2578;51.622;7.046;2022-09-28T06:39:02;13.47;;;10.80;;
5117;SDS011;2578;51.622;7.046;2022-09-28T06:41:28;23.63;;;15.97;;
5117;SDS011;2578;51.622;7.046;2022-09-28T06:43:53;12.80;;;10.87;;
5117;SDS011;2578;51.622;7.046;2022-09-28T06:46:20;11.90;;;9.67;;
5117;SDS011;2578;51.622;7.046;2022-09-28T06:48:46;12.70;;;9.90;;
5117;SDS011;2578;51.622;7.046;2022-09-28T06:51:11;34.67;;;15.40;;
5117;SDS011;2578;51.622;7.046;2022-09-28T06:53:37;13.93;;;12.07;;
5117;SDS011;2578;51.622;7.046;2022-09-28T06:56:07;16.63;;;10.00;;
5117;SDS011;2578;51.622;7.046;2022-09-28T06:58:34;13.10;;;10.53;;
5117;SDS011;2578;51.622;7.046;2022-09-28T07:01:00;12.57;;;9.63;;
5117;SDS011;2578;51.622;7.046;2022-09-28T07:03:28;16.03;;;11.67;;
5117;SDS011;2578;51.622;7.046;2022-09-28T07:05:54;11.47;;;9.00;;
5117;SDS011;2578;51.622;7.046;2022-09-28T07:08:24;19.83;;;11.57;;
5117;SDS011;2578;51.622;7.046;2022-09-28T07:10:51;16.07;;;12.60;;
5117;SDS011;2578;51.622;7.046;2022-09-28T07:13:21;12.63;;;10.70;;
5117;SDS011;2578;51.622;7.046;2022-09-28T07:15:53;12.83;;;11.07;;
5117;SDS011;2578;51.622;7.046;2022-09-28T07:18:24;17.53;;;11.47;;
5117;SDS011;2578;51.622;7.046;2022-09-28T07:20:50;17.60;;;12.37;;
5117;SDS011;2578;51.622;7.046;2022-09-28T07:23:16;12.60;;;9.87;;
5117;SDS011;2578;51.622;7.046;2022-09-28T07:25:43;22.63;;;12.83;;
5117;SDS011;2578;51.622;7.046;2022-09-28T07:28:11;12.10;;;9.73;;
5117;SDS011;2578;51.622;7.046;2022-09-28T07:30:37;13.93;;;11.17;;
5117;SDS011;2578;51.622;7.046;2022-09-28T07:33:03;12.70;;;11.07;;
5117;SDS011;2578;51.622;7.046;2022-09-28T07:35:31;14.30;;;12.80;;
5117;SDS011;2578;51.622;7.046;2022-09-28T07:38:02;13.20;;;11.30;;
5117;SDS011;2578;51.622;7.046;2022-09-28T07:40:29;19.60;;;15.07;;
5117;SDS011;2578;51.622;7.046;2022-09-28T07:43:15;12.50;;;10.90;;
5117;SDS011;2578;51.622;7.046;2022-09-28T07:45:45;17.63;;;12.67;;
5117;SDS011;2578;51.622;7.046;2022-09-28T07:48:14;19.30;;;12.90;;
5117;SDS011;2578;51.622;7.046;2022-09-28T07:51:00;12.33;;;10.97;;
5117;SDS011;2578;51.622;7.046;2022-09-28T07:53:26;17.13;;;14.93;;
5117;SDS011;2578;51.622;7.046;2022-09-28T07:56:00;14.70;;;11.80;;
5117;SDS011;2578;51.622;7.046;2022-09-28T07:58:42;13.10;;;11.73;;
5117;SDS011;2578;51.622;7.046;2022-09-28T08:01:11;16.90;;;14.00;;
5117;SDS011;2578;51.622;7.046;2022-09-28T08:03:39;14.20;;;12.03;;
5117;SDS011;2578;51.622;7.046;2022-09-28T08:06:09;12.93;;;11.57;;
5117;SDS011;2578;51.622;7.046;2022-09-28T08:08:37;21.37;;;13.87;;
5117;SDS011;2578;51.622;7.046;2022-09-28T08:11:09;26.70;;;18.40;;
5117;SDS011;2578;51.622;7.046;2022-09-28T08:13:39;13.97;;;12.57;;
5117;SDS011;2578;51.622;7.046;2022-09-28T08:16:05;15.30;;;13.70;;
5117;SDS011;2578;51.622;7.046;2022-09-28T08:18:32;15.83;;;12.73;;
5117;SDS011;2578;51.622;7.046;2022-09-28T08:21:00;21.17;;;16.27;;
5117;SDS011;2578;51.622;7.046;2022-09-28T08:23:45;15.70;;;13.10;;
5117;SDS011;2578;51.622;7.046;2022-09-28T08:26:11;13.40;;;12.00;;
5117;SDS011;2578;51.622;7.046;2022-09-28T08:28:36;18.03;;;15.60;;
5117;SDS011;2578;51.622;7.046;2022-09-28T08:31:03;19.90;;;16.77;;
5117;SDS011;2578;51.622;7.046;2022-09-28T08:33:31;20.43;;;15.83;;
5117;SDS011;2578;51.622;7.046;2022-09-28T08:35:58;21.97;;;17.97;;
5117;SDS011;2578;51.622;7.046;2022-09-28T08:38:26;18.80;;;16.90;;
5117;SDS011;2578;51.622;7.046;2022-09-28T08:41:07;13.30;;;11.90;;
5117;SDS011;2578;51.622;7.046;2022-09-28T08:46:41;14.90;;;11.10;;
5117;SDS011;2578;51.622;7.046;2022-09-28T08:52:09;18.77;;;14.83;;
5117;SDS011;2578;51.622;7.046;2022-09-28T08:57:23;14.43;;;12.73;;
5117;SDS011;2578;51.622;7.046;2022-09-28T08:59:55;13.93;;;12.17;;
5117;SDS011;2578;51.622;7.046;2022-09-28T09:02:32;17.03;;;14.07;;
5117;SDS011;2578;51.622;7.046;2022-09-28T09:05:01;15.03;;;10.93;;
5117;SDS011;2578;51.622;7.046;2022-09-28T09:16:10;17.50;;;11.73;;
5117;SDS011;2578;51.622;7.046;2022-09-28T09:19:37;12.67;;;11.30;;
5117;SDS011;2578;51.622;7.046;2022-09-28T09:21:48;14.30;;;12.23;;
5117;SDS011;2578;51.622;7.046;2022-09-28T09:24:25;16.67;;;12.77;;
5117;SDS011;2578;51.622;7.046;2022-09-28T09:27:17;14.80;;;9.23;;
5117;SDS011;2578;51.622;7.046;2022-09-28T09:38:40;12.63;;;9.40;;
5117;SDS011;2578;51.622;7.046;2022-09-28T09:47:05;11.30;;;10.10;;
5117;SDS011;2578;51.622;7.046;2022-09-28T09:55:02;12.10;;;10.90;;
5117;SDS011;2578;51.622;7.046;2022-09-28T09:57:51;13.73;;;12.43;;
5117;SDS011;2578;51.622;7.046;2022-09-28T10:00:22;15.43;;;14.03;;
5117;SDS011;2578;51.622;7.046;2022-09-28T10:02:48;17.00;;;15.40;;
5117;SDS011;2578;51.622;7.046;2022-09-28T10:05:19;15.23;;;13.73;;
5117;SDS011;2578;51.622;7.046;2022-09-28T10:08:03;17.60;;;15.70;;
5117;SDS011;2578;51.622;7.046;2022-09-28T10:10:38;20.27;;;16.70;;
5117;SDS011;2578;51.622;7.046;2022-09-28T10:13:17;16.00;;;14.30;;
5117;SDS011;2578;51.622;7.046;2022-09-28T10:15:42;17.33;;;13.83;;
5117;SDS011;2578;51.622;7.046;2022-09-28T10:18:12;13.20;;;11.90;;
5117;SDS011;2578;51.622;7.046;2022-09-28T10:20:40;16.67;;;15.07;;
5117;SDS011;2578;51.622;7.046;2022-09-28T10:23:21;17.60;;;15.90;;
5117;SDS011;2578;51.622;7.046;2022-09-28T10:25:51;21.00;;;19.00;;
5117;SDS011;2578;51.622;7.046;2022-09-28T10:28:25;24.30;;;21.90;;
5117;SDS011;2578;51.622;7.046;2022-09-28T10:30:59;26.30;;;23.60;;
5117;SDS011;2578;51.622;7.046;2022-09-28T10:33:44;26.27;;;23.67;;
5117;SDS011;2578;51.622;7.046;2022-09-28T10:36:10;24.17;;;21.73;;
5117;SDS011;2578;51.622;7.046;2022-09-28T10:38:36;24.90;;;22.30;;
5117;SDS011;2578;51.622;7.046;2022-09-28T10:41:08;22.10;;;20.10;;
5117;SDS011;2578;51.622;7.046;2022-09-28T10:43:36;19.87;;;17.97;;
5117;SDS011;2578;51.622;7.046;2022-09-28T10:46:18;17.30;;;15.70;;
5117;SDS011;2578;51.622;7.046;2022-09-28T10:51:12;13.30;;;12.00;;
5117;SDS011;2578;51.622;7.046;2022-09-28T10:53:38;15.40;;;13.80;;
5117;SDS011;2578;51.622;7.046;2022-09-28T10:56:20;11.83;;;10.60;;
5117;SDS011;2578;51.622;7.046;2022-09-28T10:58:47;12.03;;;10.27;;
5117;SDS011;2578;51.622;7.046;2022-09-28T11:01:16;11.33;;;9.97;;
5117;SDS011;2578;51.622;7.046;2022-09-28T11:03:52;11.27;;;9.80;;
5117;SDS011;2578;51.622;7.046;2022-09-28T11:06:24;12.00;;;10.47;;
5117;SDS011;2578;51.622;7.046;2022-09-28T11:08:55;12.87;;;11.57;;
5117;SDS011;2578;51.622;7.046;2022-09-28T11:11:23;13.23;;;11.93;;
5117;SDS011;2578;51.622;7.046;2022-09-28T11:13:50;12.97;;;11.67;;
5117;SDS011;2578;51.622;7.046;2022-09-28T11:16:25;14.73;;;13.33;;
5117;SDS011;2578;51.622;7.046;2022-09-28T11:18:57;14.97;;;13.33;;
5117;SDS011;2578;51.622;7.046;2022-09-28T11:21:28;16.70;;;15.20;;
5117;SDS011;2578;51.622;7.046;2022-09-28T11:23:57;14.53;;;13.13;;
5117;SDS011;2578;51.622;7.046;2022-09-28T11:26:25;16.77;;;15.17;;
5117;SDS011;2578;51.622;7.046;2022-09-28T11:28:52;17.30;;;15.70;;
5117;SDS011;2578;51.622;7.046;2022-09-28T11:31:25;16.70;;;15.10;;
5117;SDS011;2578;51.622;7.046;2022-09-28T11:37:10;19.90;;;18.00;;
5117;SDS011;2578;51.622;7.046;2022-09-28T11:39:57;20.70;;;18.80;;
5117;SDS011;2578;51.622;7.046;2022-09-28T11:42:59;18.90;;;17.20;;
5117;SDS011;2578;51.622;7.046;2022-09-28T11:48:24;15.90;;;14.40;;
5117;SDS011;2578;51.622;7.046;2022-09-28T11:51:03;14.80;;;13.40;;
5117;SDS011;2578;51.622;7.046;2022-09-28T11:53:35;16.87;;;15.30;;
5117;SDS011;2578;51.622;7.046;2022-09-28T11:58:58;15.87;;;14.37;;
5117;SDS011;2578;51.622;7.046;2022-09-28T12:01:52;15.20;;;13.80;;
5117;SDS011;2578;51.622;7.046;2022-09-28T12:07:03;19.17;;;17.40;;
5117;SDS011;2578;51.622;7.046;2022-09-28T12:09:38;16.70;;;15.10;;
5117;SDS011;2578;51.622;7.046;2022-09-28T12:12:24;16.37;;;14.87;;
5117;SDS011;2578;51.622;7.046;2022-09-28T12:15:11;30.97;;;15.83;;
5117;SDS011;2578;51.622;7.046;2022-09-28T12:17:55;15.47;;;13.97;;
5117;SDS011;2578;51.622;7.046;2022-09-28T12:20:31;14.17;;;12.67;;
5117;SDS011;2578;51.622;7.046;2022-09-28T12:23:01;14.90;;;13.20;;
5117;SDS011;2578;51.622;7.046;2022-09-28T12:25:28;10.37;;;9.20;;
5117;SDS011;2578;51.622;7.046;2022-09-28T12:28:05;10.63;;;9.40;;
5117;SDS011;2578;51.622;7.046;2022-09-28T12:30:36;10.57;;;9.37;;
5117;SDS011;2578;51.622;7.046;2022-09-28T12:33:07;10.73;;;9.60;;
5117;SDS011;2578;51.622;7.046;2022-09-28T12:43:30;15.00;;;13.50;;
5117;SDS011;2578;51.622;7.046;2022-09-28T12:51:58;12.00;;;10.80;;
5117;SDS011;2578;51.622;7.046;2022-09-28T12:54:49;12.50;;;11.30;;
5117;SDS011;2578;51.622;7.046;2022-09-28T13:00:17;11.70;;;10.50;;
5117;SDS011;2578;51.622;7.046;2022-09-28T13:10:35;13.50;;;12.20;;
5117;SDS011;2578;51.622;7.046;2022-09-28T13:19:06;16.33;;;14.83;;
5117;SDS011;2578;51.622;7.046;2022-09-28T13:24:20;19.80;;;18.00;;
5117;SDS011;2578;51.622;7.046;2022-09-28T13:26:50;20.37;;;18.47;;
5117;SDS011;2578;51.622;7.046;2022-09-28T13:29:18;21.50;;;19.50;;
5117;SDS011;2578;51.622;7.046;2022-09-28T13:31:56;21.20;;;19.20;;
5117;SDS011;2578;51.622;7.046;2022-09-28T13:34:24;20.10;;;18.30;;
5117;SDS011;2578;51.622;7.046;2022-09-28T13:42:10;18.00;;;16.40;;
5117;SDS011;2578;51.622;7.046;2022-09-28T13:50:25;15.60;;;14.20;;
5117;SDS011;2578;51.622;7.046;2022-09-28T13:53:06;14.63;;;13.30;;
5117;SDS011;2578;51.622;7.046;2022-09-28T13:55:50;14.20;;;12.90;;
5117;SDS011;2578;51.622;7.046;2022-09-28T13:58:35;14.40;;;13.10;;
5117;SDS011;2578;51.622;7.046;2022-09-28T14:01:51;14.10;;;12.80;;
5117;SDS011;2578;51.622;7.046;2022-09-28T14:06:54;17.20;;;15.60;;
5117;SDS011;2578;51.622;7.046;2022-09-28T14:09:45;17.60;;;16.00;;
5117;SDS011;2578;51.622;7.046;2022-09-28T14:14:53;18.30;;;16.60;;
5117;SDS011;2578;51.622;7.046;2022-09-28T14:19:51;18.30;;;16.60;;
5117;SDS011;2578;51.622;7.046;2022-09-28T14:25:15;20.93;;;19.03;;
5117;SDS011;2578;51.622;7.046;2022-09-28T14:30:18;21.80;;;19.70;;
5117;SDS011;2578;51.622;7.046;2022-09-28T14:32:55;23.20;;;21.00;;
5117;SDS011;2578;51.622;7.046;2022-09-28T14:37:53;28.10;;;25.40;;
5117;SDS011;2578;51.622;7.046;2022-09-28T14:40:52;29.67;;;26.77;;
5117;SDS011;2578;51.622;7.046;2022-09-28T14:54:38;32.20;;;29.10;;
5117;SDS011;2578;51.622;7.046;2022-09-28T14:57:15;30.20;;;27.30;;
5117;SDS011;2578;51.622;7.046;2022-09-28T14:59:48;29.60;;;26.70;;
5117;SDS011;2578;51.622;7.046;2022-09-28T15:02:25;30.73;;;27.77;;
5117;SDS011;2578;51.622;7.046;2022-09-28T15:07:46;29.67;;;26.87;;
5117;SDS011;2578;51.622;7.046;2022-09-28T15:10:25;23.30;;;21.10;;
5117;SDS011;2578;51.622;7.046;2022-09-28T15:12:55;21.00;;;19.10;;
5117;SDS011;2578;51.622;7.046;2022-09-28T15:17:57;18.10;;;16.40;;
5117;SDS011;2578;51.622;7.046;2022-09-28T15:20:30;17.80;;;16.10;;
5117;SDS011;2578;51.622;7.046;2022-09-28T15:23:01;16.90;;;15.30;;
5117;SDS011;2578;51.622;7.046;2022-09-28T15:25:27;15.80;;;14.30;;
5117;SDS011;2578;51.622;7.046;2022-09-28T15:28:17;15.23;;;13.80;;
5117;SDS011;2578;51.622;7.046;2022-09-28T15:30:42;14.60;;;13.20;;
5117;SDS011;2578;51.622;7.046;2022-09-28T15:33:21;12.97;;;11.70;;
5117;SDS011;2578;51.622;7.046;2022-09-28T15:36:07;12.47;;;11.27;;
5117;SDS011;2578;51.622;7.046;2022-09-28T15:38:37;11.40;;;10.20;;
5117;SDS011;2578;51.622;7.046;2022-09-28T15:41:05;10.60;;;9.00;;
5117;SDS011;2578;51.622;7.046;2022-09-28T15:43:33;10.90;;;9.63;;
5117;SDS011;2578;51.622;7.046;2022-09-28T15:46:20;9.93;;;8.50;;
5117;SDS011;2578;51.622;7.046;2022-09-28T15:48:55;11.03;;;7.80;;
5117;SDS011;2578;51.622;7.046;2022-09-28T15:51:24;10.73;;;7.40;;
5117;SDS011;2578;51.622;7.046;2022-09-28T15:53:58;8.63;;;5.20;;
5117;SDS011;2578;51.622;7.046;2022-09-28T15:56:28;9.03;;;4.93;;
5117;SDS011;2578;51.622;7.046;2022-09-28T16:04:48;9.93;;;4.27;;
5117;SDS011;2578;51.622;7.046;2022-09-28T16:12:21;8.57;;;3.40;;
5117;SDS011;2578;51.622;7.046;2022-09-28T16:14:51;8.77;;;4.10;;
5117;SDS011;2578;51.622;7.046;2022-09-28T16:17:29;8.50;;;3.40;;
5117;SDS011;2578;51.622;7.046;2022-09-28T16:20:00;8.70;;;4.27;;
5117;SDS011;2578;51.622;7.046;2022-09-28T16:22:29;8.43;;;3.37;;
5117;SDS011;2578;51.622;7.046;2022-09-28T16:24:58;9.30;;;3.60;;
5117;SDS011;2578;51.622;7.046;2022-09-28T16:27:29;8.60;;;3.57;;
5117;SDS011;2578;51.622;7.046;2022-09-28T16:30:16;8.90;;;4.03;;
5117;SDS011;2578;51.622;7.046;2022-09-28T16:37:55;8.57;;;3.60;;
5117;SDS011;2578;51.622;7.046;2022-09-28T16:40:21;8.73;;;3.90;;
5117;SDS011;2578;51.622;7.046;2022-09-28T16:42:47;8.70;;;3.87;;
5117;SDS011;2578;51.622;7.046;2022-09-28T16:45:16;8.77;;;4.00;;
5117;SDS011;2578;51.622;7.046;2022-09-28T16:47:44;11.00;;;6.93;;
5117;SDS011;2578;51.622;7.046;2022-09-28T16:50:13;8.70;;;3.77;;
5117;SDS011;2578;51.622;7.046;2022-09-28T16:52:39;8.77;;;4.03;;
5117;SDS011;2578;51.622;7.046;2022-09-28T16:55:23;8.73;;;3.70;;
5117;SDS011;2578;51.622;7.046;2022-09-28T16:57:49;8.77;;;3.80;;
5117;SDS011;2578;51.622;7.046;2022-09-28T17:00:17;8.60;;;3.40;;
5117;SDS011;2578;51.622;7.046;2022-09-28T17:02:46;8.90;;;3.80;;
5117;SDS011;2578;51.622;7.046;2022-09-28T17:05:16;8.53;;;3.30;;
5117;SDS011;2578;51.622;7.046;2022-09-28T17:07:48;8.40;;;2.93;;
5117;SDS011;2578;51.622;7.046;2022-09-28T17:10:34;8.37;;;3.00;;
5117;SDS011;2578;51.622;7.046;2022-09-28T17:13:04;8.40;;;3.20;;
5117;SDS011;2578;51.622;7.046;2022-09-28T17:15:29;8.10;;;2.50;;
5117;SDS011;2578;51.622;7.046;2022-09-28T17:17:55;8.17;;;2.50;;
5117;SDS011;2578;51.622;7.046;2022-09-28T17:20:22;8.07;;;2.50;;
5117;SDS011;2578;51.622;7.046;2022-09-28T17:22:51;8.07;;;2.37;;
5117;SDS011;2578;51.622;7.046;2022-09-28T17:25:20;9.17;;;2.23;;
5117;SDS011;2578;51.622;7.046;2022-09-28T17:27:48;7.73;;;2.03;;
5117;SDS011;2578;51.622;7.046;2022-09-28T17:30:15;7.77;;;1.93;;
5117;SDS011;2578;51.622;7.046;2022-09-28T17:32:41;7.70;;;2.10;;
5117;SDS011;2578;51.622;7.046;2022-09-28T17:35:10;7.67;;;2.00;;
5117;SDS011;2578;51.622;7.046;2022-09-28T17:37:36;7.63;;;2.00;;
5117;SDS011;2578;51.622;7.046;2022-09-28T17:40:10;7.63;;;2.00;;
5117;SDS011;2578;51.622;7.046;2022-09-28T17:42:49;7.33;;;1.70;;
5117;SDS011;2578;51.622;7.046;2022-09-28T17:45:16;7.53;;;1.90;;
5117;SDS011;2578;51.622;7.046;2022-09-28T17:47:42;7.60;;;2.00;;
5117;SDS011;2578;51.622;7.046;2022-09-28T17:50:13;7.60;;;1.90;;
5117;SDS011;2578;51.622;7.046;2022-09-28T17:52:45;7.80;;;1.90;;
5117;SDS011;2578;51.622;7.046;2022-09-28T17:55:24;7.63;;;1.87;;
5117;SDS011;2578;51.622;7.046;2022-09-28T17:57:58;7.60;;;1.70;;
5117;SDS011;2578;51.622;7.046;2022-09-28T18:00:25;7.37;;;1.70;;
5117;SDS011;2578;51.622;7.046;2022-09-28T18:02:55;7.60;;;1.60;;
5117;SDS011;2578;51.622;7.046;2022-09-28T18:05:22;7.57;;;1.60;;
5117;SDS011;2578;51.622;7.046;2022-09-28T18:07:52;7.57;;;1.50;;
5117;SDS011;2578;51.622;7.046;2022-09-28T18:10:19;7.57;;;1.40;;
5117;SDS011;2578;51.622;7.046;2022-09-28T18:12:48;7.70;;;1.90;;